Terminal Aerodrome Forecast
Issued by NWS

Current Version | Previous Version | Graphics & Text | Print | Product List | Glossary On
Versions: 1 2 3 4 5 6 7 8 9 10 11 12 13 14 15 16 17 18 19 20 21 22
200
FTUS41 KPBZ 280159 AAA
TAFHLG
TAF AMD
KHLG 280159Z 2802/2824 15003KT P6SM OVC050
     FM280700 14003KT 5SM BR SCT050
      TEMPO 2808/2812 1SM BR
     FM281200 16009KT P6SM OVC080
     FM281700 20012G20KT 5SM -RA OVC010=

USA.gov is the U.S. government's official web portal to all federal, state and local government web resources and services.